createdAt,value
2023-01-21T00:00:19.735Z,19.60
2023-01-21T00:01:19.743Z,19.60
2023-01-21T00:02:19.776Z,19.70
2023-01-21T00:03:19.741Z,19.80
2023-01-21T00:04:19.691Z,18.40
2023-01-21T00:05:19.737Z,19.60
2023-01-21T00:06:19.690Z,18.60
2023-01-21T00:07:19.667Z,18.70
2023-01-21T00:08:19.656Z,20.10
2023-01-21T00:09:19.666Z,18.50
2023-01-21T00:10:19.641Z,20.30
2023-01-21T00:11:19.645Z,19.80
2023-01-21T00:12:20.459Z,19.20
2023-01-21T00:13:19.602Z,20.00
2023-01-21T00:14:19.590Z,19.70
2023-01-21T00:15:19.573Z,20.00
2023-01-21T00:16:19.590Z,19.40
2023-01-21T00:17:20.485Z,19.50
2023-01-21T00:18:19.536Z,18.60
2023-01-21T00:19:19.537Z,20.80
2023-01-21T00:20:19.884Z,20.00
2023-01-21T00:21:19.594Z,19.10
2023-01-21T00:22:19.490Z,18.50
2023-01-21T00:23:19.489Z,19.70
2023-01-21T00:24:19.469Z,19.10
2023-01-21T00:25:19.473Z,19.40
2023-01-21T00:26:19.463Z,19.50
2023-01-21T00:27:19.449Z,19.50
2023-01-21T00:28:19.424Z,20.20
2023-01-21T00:29:19.435Z,19.10
2023-01-21T00:30:19.967Z,19.30
2023-01-21T00:31:19.536Z,20.20
2023-01-21T00:32:19.399Z,19.60
2023-01-21T00:33:19.492Z,19.60
2023-01-21T00:34:19.365Z,19.60
2023-01-21T00:35:19.501Z,20.40
2023-01-21T00:36:19.339Z,20.60
2023-01-21T00:37:19.492Z,19.30
2023-01-21T00:38:19.325Z,19.80
2023-01-21T00:39:19.477Z,19.90
2023-01-21T00:40:19.386Z,19.70
2023-01-21T00:41:19.323Z,20.00
2023-01-21T00:42:19.284Z,19.30
2023-01-21T00:43:21.965Z,20.00
2023-01-21T00:44:19.259Z,20.50
2023-01-21T00:45:21.337Z,19.80
2023-01-21T00:46:19.304Z,19.60
2023-01-21T00:47:19.375Z,20.30
2023-01-21T00:48:19.233Z,20.60
2023-01-21T00:49:19.214Z,20.00
2023-01-21T00:50:19.201Z,19.50
2023-01-21T00:51:19.226Z,19.90
2023-01-21T00:52:19.163Z,19.90
2023-01-21T00:53:19.389Z,20.50
2023-01-21T00:54:19.168Z,20.50
2023-01-21T00:55:19.142Z,20.60
2023-01-21T00:56:20.003Z,20.70
2023-01-21T00:57:22.060Z,20.70
2023-01-21T00:58:19.106Z,20.30
2023-01-21T00:59:19.345Z,21.20
2023-01-21T01:00:19.194Z,20.90
2023-01-21T01:01:19.159Z,21.20
2023-01-21T01:02:19.138Z,19.90
2023-01-21T01:03:19.913Z,20.70
2023-01-21T01:04:19.034Z,21.10
2023-01-21T01:05:19.247Z,21.10
2023-01-21T01:06:19.050Z,20.40
2023-01-21T01:07:19.001Z,20.60
2023-01-21T01:08:19.013Z,20.00
2023-01-21T01:09:26.063Z,21.20
2023-01-21T01:10:18.979Z,20.10
2023-01-21T01:11:19.154Z,20.60
2023-01-21T01:12:21.455Z,22.40
2023-01-21T01:13:19.103Z,21.50
2023-01-21T01:14:19.144Z,21.10
2023-01-21T01:15:19.463Z,20.90
2023-01-21T01:16:19.010Z,20.70
2023-01-21T01:17:18.893Z,20.50
2023-01-21T01:18:18.922Z,19.40
2023-01-21T01:19:18.879Z,20.20
2023-01-21T01:20:18.961Z,20.40
2023-01-21T01:21:18.853Z,20.40
2023-01-21T01:22:19.001Z,20.70
2023-01-21T01:23:18.827Z,20.10
2023-01-21T01:24:18.966Z,20.70
2023-01-21T01:25:18.826Z,19.50
2023-01-21T01:26:18.974Z,20.30
2023-01-21T01:27:18.797Z,20.40
2023-01-21T01:28:18.840Z,20.30
2023-01-21T01:29:18.759Z,20.80
2023-01-21T01:30:18.848Z,18.90
2023-01-21T01:31:18.932Z,20.30
2023-01-21T01:32:21.476Z,19.30
2023-01-21T01:33:18.721Z,20.20
2023-01-21T01:34:18.712Z,18.90
2023-01-21T01:35:18.695Z,19.50
2023-01-21T01:36:19.879Z,19.20
2023-01-21T01:37:18.699Z,19.60
2023-01-21T01:38:18.858Z,19.80
2023-01-21T01:39:19.884Z,20.20
2023-01-21T01:40:18.737Z,20.20
2023-01-21T01:41:18.739Z,20.10
2023-01-21T01:42:20.485Z,19.60
2023-01-21T01:43:18.692Z,19.70
2023-01-21T01:44:19.445Z,19.00
2023-01-21T01:45:19.448Z,18.80
2023-01-21T01:46:18.623Z,20.00
2023-01-21T01:47:18.711Z,20.10
2023-01-21T01:48:18.558Z,20.00
2023-01-21T01:49:18.573Z,20.10
2023-01-21T01:50:18.989Z,18.30
2023-01-21T01:51:18.901Z,20.10
2023-01-21T01:52:18.504Z,19.90
2023-01-21T01:53:18.542Z,19.00
2023-01-21T01:54:21.443Z,19.40
2023-01-21T01:55:24.157Z,20.10
2023-01-21T01:56:18.463Z,20.00
2023-01-21T01:57:18.595Z,20.40
2023-01-21T01:58:18.446Z,19.80
2023-01-21T01:59:18.583Z,20.20
2023-01-21T02:00:19.195Z,19.90
2023-01-21T02:01:19.722Z,19.10
2023-01-21T02:02:18.404Z,19.80
2023-01-21T02:03:18.407Z,19.70
2023-01-21T02:04:18.414Z,19.60
2023-01-21T02:05:18.536Z,19.60
2023-01-21T02:06:18.420Z,18.80
2023-01-21T02:07:18.343Z,20.70
2023-01-21T02:08:21.098Z,19.40
2023-01-21T02:09:18.324Z,19.70
2023-01-21T02:10:20.512Z,19.10
2023-01-21T02:11:18.324Z,20.60
2023-01-21T02:12:18.466Z,20.30
2023-01-21T02:13:18.298Z,20.20
2023-01-21T02:14:18.279Z,19.80
2023-01-21T02:15:18.257Z,19.90
2023-01-21T02:16:18.356Z,19.90
2023-01-21T02:17:18.252Z,19.80
2023-01-21T02:18:18.219Z,20.20
2023-01-21T02:19:18.225Z,19.90
2023-01-21T02:20:18.489Z,20.30
2023-01-21T02:21:19.223Z,20.50
2023-01-21T02:22:18.206Z,22.00
2023-01-21T02:23:20.993Z,19.40
2023-01-21T02:24:18.144Z,19.80
2023-01-21T02:25:18.352Z,20.40
2023-01-21T02:26:18.147Z,19.60
2023-01-21T02:27:18.153Z,19.90
2023-01-21T02:28:18.124Z,20.10
2023-01-21T02:29:18.191Z,19.50
2023-01-21T02:30:18.462Z,20.40
2023-01-21T02:31:18.245Z,19.90
2023-01-21T02:32:18.191Z,19.20
2023-01-21T02:33:18.053Z,19.20
2023-01-21T02:34:18.257Z,19.70
2023-01-21T02:35:18.033Z,20.60
2023-01-21T02:36:18.946Z,20.10
2023-01-21T02:37:18.948Z,20.00
2023-01-21T02:38:18.026Z,20.20
2023-01-21T02:39:18.976Z,19.40
2023-01-21T02:40:21.109Z,19.30
2023-01-21T02:41:17.957Z,20.40
2023-01-21T02:42:18.055Z,20.20
2023-01-21T02:43:17.953Z,19.30
2023-01-21T02:44:17.944Z,19.90
2023-01-21T02:45:19.167Z,19.40
2023-01-21T02:46:17.925Z,20.50
2023-01-21T02:47:18.495Z,19.20
2023-01-21T02:48:17.890Z,20.30
2023-01-21T02:49:18.447Z,19.70
2023-01-21T02:50:18.192Z,19.00
2023-01-21T02:51:18.051Z,19.10
2023-01-21T02:52:17.835Z,19.70
2023-01-21T02:53:17.916Z,19.70
2023-01-21T02:54:17.835Z,20.30
2023-01-21T02:55:17.814Z,20.30
2023-01-21T02:56:17.802Z,20.50
2023-01-21T02:57:17.997Z,19.80
2023-01-21T02:58:17.777Z,20.40
2023-01-21T02:59:18.994Z,19.60
2023-01-21T03:00:18.176Z,19.90
2023-01-21T03:01:17.851Z,19.70
2023-01-21T03:02:18.479Z,19.40
2023-01-21T03:03:17.785Z,18.90
2023-01-21T03:04:17.709Z,19.50
2023-01-21T03:05:17.805Z,19.20
2023-01-21T03:06:17.696Z,19.20
2023-01-21T03:07:17.885Z,19.70
2023-01-21T03:08:17.660Z,19.20
2023-01-21T03:09:17.821Z,20.20
2023-01-21T03:10:17.981Z,20.40
2023-01-21T03:11:17.834Z,20.00
2023-01-21T03:12:18.439Z,18.20
2023-01-21T03:13:17.650Z,20.20
2023-01-21T03:14:17.593Z,20.10
2023-01-21T03:15:17.590Z,20.50
2023-01-21T03:16:18.728Z,20.80
2023-01-21T03:17:17.600Z,20.80
2023-01-21T03:18:17.685Z,20.60
2023-01-21T03:19:17.543Z,19.70
2023-01-21T03:20:17.935Z,19.50
2023-01-21T03:21:17.699Z,19.40
2023-01-21T03:22:17.524Z,20.10
2023-01-21T03:23:17.714Z,21.10
2023-01-21T03:24:18.442Z,20.90
2023-01-21T03:25:17.573Z,20.30
2023-01-21T03:26:17.467Z,20.20
2023-01-21T03:27:17.971Z,21.20
2023-01-21T03:28:17.445Z,21.90
2023-01-21T03:29:18.571Z,21.40
2023-01-21T03:30:17.811Z,20.70
2023-01-21T03:31:17.581Z,21.50
2023-01-21T03:32:17.397Z,21.00
2023-01-21T03:33:18.001Z,21.20
2023-01-21T03:34:17.380Z,21.60
2023-01-21T03:35:17.435Z,20.70
2023-01-21T03:36:17.364Z,21.00
2023-01-21T03:37:17.403Z,21.90
2023-01-21T03:38:17.332Z,22.80
2023-01-21T03:39:18.028Z,21.20
2023-01-21T03:40:17.562Z,21.20
2023-01-21T03:41:17.469Z,20.80
2023-01-21T03:42:17.287Z,20.20
2023-01-21T03:43:17.503Z,20.30
2023-01-21T03:44:17.264Z,20.40
2023-01-21T03:45:17.465Z,21.50
2023-01-21T03:46:17.280Z,21.10
2023-01-21T03:47:17.228Z,22.40
2023-01-21T03:48:17.242Z,22.40
2023-01-21T03:49:17.972Z,22.10
2023-01-21T03:50:17.455Z,21.20
2023-01-21T03:51:17.205Z,20.40
2023-01-21T03:52:17.206Z,20.20
2023-01-21T03:53:17.167Z,20.30
2023-01-21T03:54:19.349Z,20.60
2023-01-21T03:55:17.143Z,20.90
2023-01-21T03:56:17.321Z,21.00
2023-01-21T03:57:17.128Z,20.10
2023-01-21T03:58:17.185Z,19.90
2023-01-21T03:59:17.103Z,20.10
2023-01-21T04:00:17.417Z,20.80
2023-01-21T04:01:17.185Z,21.10
2023-01-21T04:02:17.114Z,21.10
2023-01-21T04:03:17.066Z,20.50
2023-01-21T04:04:17.216Z,21.60
2023-01-21T04:05:17.057Z,20.80
2023-01-21T04:06:17.026Z,20.20
2023-01-21T04:07:17.028Z,20.90
2023-01-21T04:08:17.198Z,22.00
2023-01-21T04:09:17.052Z,21.10
2023-01-21T04:10:17.338Z,21.20
2023-01-21T04:11:17.939Z,21.40
2023-01-21T04:12:17.021Z,21.40
2023-01-21T04:13:16.950Z,21.00
2023-01-21T04:14:17.031Z,22.00
2023-01-21T04:15:16.964Z,21.60
2023-01-21T04:16:17.070Z,23.60
2023-01-21T04:17:17.444Z,23.00
2023-01-21T04:18:17.054Z,23.20
2023-01-21T04:19:17.085Z,24.60
2023-01-21T04:20:17.169Z,23.70
2023-01-21T04:21:16.887Z,23.20
2023-01-21T04:22:16.863Z,22.40
2023-01-21T04:23:16.905Z,22.60
2023-01-21T04:24:16.855Z,21.70
2023-01-21T04:25:16.902Z,23.30
2023-01-21T04:26:16.830Z,24.10
2023-01-21T04:27:16.918Z,23.50
2023-01-21T04:28:17.441Z,22.80
2023-01-21T04:29:18.991Z,23.60
2023-01-21T04:30:16.983Z,23.80
2023-01-21T04:31:17.072Z,22.60
2023-01-21T04:32:16.741Z,22.90
2023-01-21T04:33:16.761Z,24.10
2023-01-21T04:34:16.743Z,22.80
2023-01-21T04:35:16.760Z,23.00
2023-01-21T04:36:16.722Z,23.90
2023-01-21T04:37:16.816Z,25.80
2023-01-21T04:38:16.684Z,24.40
2023-01-21T04:39:16.668Z,24.60
2023-01-21T04:40:16.977Z,24.00
2023-01-21T04:41:16.854Z,25.00
2023-01-21T04:42:17.435Z,23.10
2023-01-21T04:43:16.817Z,23.70
2023-01-21T04:44:16.617Z,23.50
2023-01-21T04:45:16.622Z,22.50
2023-01-21T04:46:16.720Z,22.60
2023-01-21T04:47:24.468Z,23.20
2023-01-21T04:48:16.567Z,23.10
2023-01-21T04:49:37.567Z,22.60
2023-01-21T04:50:16.830Z,23.00
2023-01-21T04:52:27.378Z,21.70
2023-01-21T04:53:30.069Z,22.20
2023-01-21T04:54:27.321Z,24.00
2023-01-21T04:55:27.363Z,23.10
2023-01-21T04:56:36.169Z,23.10
2023-01-21T04:57:27.306Z,23.10
2023-01-21T04:58:29.422Z,23.20
2023-01-21T04:59:27.259Z,23.90
2023-01-21T05:00:28.054Z,23.10
2023-01-21T05:01:27.291Z,22.50
2023-01-21T05:02:27.448Z,23.10
2023-01-21T05:03:27.241Z,22.60
2023-01-21T05:04:27.400Z,22.90
2023-01-21T05:05:27.207Z,23.10
2023-01-21T05:06:27.181Z,24.00
2023-01-21T05:07:27.202Z,23.60
2023-01-21T05:08:30.056Z,25.30
2023-01-21T05:09:28.304Z,24.90
2023-01-21T05:10:27.151Z,23.80
2023-01-21T05:11:27.240Z,23.70
2023-01-21T05:12:27.141Z,25.60
2023-01-21T05:13:27.140Z,24.80
2023-01-21T05:14:28.289Z,23.80
2023-01-21T05:15:27.137Z,25.50
2023-01-21T05:16:28.792Z,25.90
2023-01-21T05:17:27.074Z,28.80
2023-01-21T05:18:27.121Z,28.60
2023-01-21T05:19:30.049Z,28.70
2023-01-21T05:20:27.150Z,27.80
2023-01-21T05:21:27.026Z,29.00
2023-01-21T05:22:27.721Z,27.70
2023-01-21T05:23:27.009Z,28.70
2023-01-21T05:24:27.186Z,29.20
2023-01-21T05:25:26.988Z,31.90
2023-01-21T05:26:27.762Z,31.10
2023-01-21T05:27:26.965Z,29.20
2023-01-21T05:28:29.848Z,29.20
2023-01-21T05:29:26.939Z,29.00
2023-01-21T05:30:28.009Z,29.10
2023-01-21T05:31:27.022Z,27.90
2023-01-21T05:32:26.901Z,29.10
2023-01-21T05:33:26.981Z,31.00
2023-01-21T05:34:27.562Z,29.60
2023-01-21T05:35:28.949Z,31.50
2023-01-21T05:36:26.887Z,28.50
2023-01-21T05:37:28.030Z,30.40
2023-01-21T05:38:27.010Z,28.50
2023-01-21T05:39:27.533Z,28.90
2023-01-21T05:40:26.886Z,28.90
2023-01-21T05:41:27.579Z,29.40
2023-01-21T05:42:27.086Z,27.10
2023-01-21T05:43:26.786Z,27.20
2023-01-21T05:44:27.672Z,27.40
2023-01-21T05:45:26.794Z,26.10
2023-01-21T05:46:29.721Z,27.40
2023-01-21T05:47:27.536Z,26.40
2023-01-21T05:48:27.688Z,27.00
2023-01-21T05:49:27.532Z,25.90
2023-01-21T05:50:27.533Z,27.40
2023-01-21T05:51:26.740Z,28.20
2023-01-21T05:52:27.544Z,30.10
2023-01-21T05:53:34.573Z,30.30
2023-01-21T05:54:27.535Z,29.70
2023-01-21T05:55:26.661Z,29.90
2023-01-21T05:56:27.194Z,30.80
2023-01-21T05:57:26.629Z,30.70
2023-01-21T05:58:27.536Z,29.10
2023-01-21T05:59:41.528Z,29.50
2023-01-21T06:00:26.615Z,32.00
2023-01-21T06:01:27.529Z,29.40
2023-01-21T06:02:26.641Z,31.50
2023-01-21T06:03:27.577Z,30.30
2023-01-21T06:04:27.525Z,28.60
2023-01-21T06:05:29.544Z,28.60
2023-01-21T06:06:27.533Z,27.60
2023-01-21T06:07:27.069Z,26.50
2023-01-21T06:08:27.020Z,28.00
2023-01-21T06:09:33.159Z,29.30
2023-01-21T06:10:27.034Z,27.70
2023-01-21T06:11:27.036Z,27.10
2023-01-21T06:12:27.088Z,29.50
2023-01-21T06:13:27.034Z,26.50
2023-01-21T06:14:26.639Z,27.00
2023-01-21T06:15:27.034Z,27.00
2023-01-21T06:16:27.070Z,27.70
2023-01-21T06:17:26.422Z,27.30
2023-01-21T06:18:27.136Z,27.80
2023-01-21T06:19:29.044Z,27.60
2023-01-21T06:20:26.392Z,26.80
2023-01-21T06:21:27.061Z,26.70
2023-01-21T06:22:26.408Z,26.70
2023-01-21T06:23:28.061Z,26.00
2023-01-21T06:24:26.365Z,27.50
2023-01-21T06:25:27.122Z,28.50
2023-01-21T06:26:27.347Z,27.50
2023-01-21T06:27:26.321Z,27.50
2023-01-21T06:28:28.076Z,28.20
2023-01-21T06:29:26.293Z,27.80
2023-01-21T06:30:27.068Z,27.60
2023-01-21T06:31:28.195Z,27.10
2023-01-21T06:32:29.037Z,26.80
2023-01-21T06:33:26.256Z,26.90
2023-01-21T06:34:29.026Z,27.80
2023-01-21T06:35:26.236Z,27.20
2023-01-21T06:36:29.019Z,25.70
2023-01-21T06:37:26.437Z,27.10
2023-01-21T06:38:29.030Z,26.90
2023-01-21T06:39:26.402Z,25.40
2023-01-21T06:40:29.017Z,26.20
2023-01-21T06:41:29.072Z,26.80
2023-01-21T06:42:28.054Z,27.10
2023-01-21T06:43:26.161Z,27.10
2023-01-21T06:44:29.043Z,27.50
2023-01-21T06:45:48.347Z,27.60
2023-01-21T06:46:29.068Z,28.20
2023-01-21T06:47:26.110Z,26.70
2023-01-21T06:48:28.062Z,29.00
2023-01-21T06:49:26.077Z,28.50
2023-01-21T06:50:27.060Z,26.90
2023-01-21T06:51:29.140Z,27.90
2023-01-21T06:52:26.044Z,26.00
2023-01-21T06:53:27.601Z,26.20
2023-01-21T06:54:27.153Z,26.60
2023-01-21T06:55:29.784Z,27.00
2023-01-21T06:56:25.994Z,27.20
2023-01-21T06:57:28.565Z,26.30
2023-01-21T06:58:28.533Z,26.90
2023-01-21T06:59:27.598Z,26.70
2023-01-21T07:00:28.553Z,24.90
2023-01-21T07:01:31.560Z,25.70
2023-01-21T07:02:28.625Z,26.80
2023-01-21T07:03:32.524Z,25.20
2023-01-21T07:04:28.607Z,26.10
2023-01-21T07:05:27.571Z,26.20
2023-01-21T07:06:28.632Z,26.60
2023-01-21T07:07:28.521Z,26.20
2023-01-21T07:08:28.536Z,25.40
2023-01-21T07:09:32.526Z,25.80
2023-01-21T07:10:28.528Z,24.60
2023-01-21T07:11:27.580Z,25.10
2023-01-21T07:12:26.058Z,25.50
2023-01-21T07:13:28.532Z,25.70
2023-01-21T07:14:26.014Z,24.70
2023-01-21T07:15:27.090Z,26.00
2023-01-21T07:16:28.634Z,25.80
2023-01-21T07:17:25.832Z,25.30
2023-01-21T07:18:28.526Z,25.70
2023-01-21T07:19:27.995Z,25.80
2023-01-21T07:20:25.742Z,25.30
2023-01-21T07:21:27.909Z,24.90
2023-01-21T07:22:27.554Z,24.00
2023-01-21T07:23:25.709Z,25.20
2023-01-21T07:24:25.741Z,25.90
2023-01-21T07:25:25.890Z,24.40
2023-01-21T07:26:27.580Z,24.30
2023-01-21T07:27:29.539Z,24.90
2023-01-21T07:28:25.675Z,24.50
2023-01-21T07:29:28.535Z,24.80
2023-01-21T07:30:28.527Z,23.60
2023-01-21T07:31:28.714Z,24.50
2023-01-21T07:32:27.203Z,26.20
2023-01-21T07:33:25.788Z,25.30
2023-01-21T07:34:27.166Z,25.20
2023-01-21T07:35:27.793Z,25.00
2023-01-21T07:36:25.753Z,26.80
2023-01-21T07:37:25.571Z,24.90
2023-01-21T07:38:25.557Z,24.10
2023-01-21T07:39:27.121Z,24.30
2023-01-21T07:40:53.626Z,25.70
2023-01-21T07:41:25.513Z,25.50
2023-01-21T07:42:28.518Z,23.70
2023-01-21T07:43:25.767Z,24.60
2023-01-21T07:44:25.475Z,25.60
2023-01-21T07:45:25.668Z,24.40
2023-01-21T07:46:25.490Z,23.90
2023-01-21T07:47:25.681Z,24.00
2023-01-21T07:48:25.455Z,23.50
2023-01-21T07:49:25.437Z,23.40
2023-01-21T07:50:25.414Z,23.80
2023-01-21T07:51:25.443Z,23.50
2023-01-21T07:52:25.433Z,23.50
2023-01-21T07:53:25.393Z,24.20
2023-01-21T07:54:25.372Z,23.60
2023-01-21T07:55:26.501Z,23.40
2023-01-21T07:56:32.015Z,24.20
2023-01-21T07:57:40.233Z,23.30
2023-01-21T07:58:25.352Z,22.40
2023-01-21T07:59:46.408Z,23.20
2023-01-21T08:00:25.388Z,23.30
2023-01-21T08:01:25.697Z,22.60
2023-01-21T08:02:25.534Z,23.30
2023-01-21T08:03:25.279Z,23.10
2023-01-21T08:04:25.286Z,23.10
2023-01-21T08:05:48.350Z,23.30
2023-01-21T08:06:25.248Z,23.10
2023-01-21T08:07:25.239Z,24.00
2023-01-21T08:08:25.408Z,23.30
2023-01-21T08:09:25.213Z,21.80
2023-01-21T08:10:25.294Z,24.00
2023-01-21T08:11:25.188Z,22.40
2023-01-21T08:12:27.506Z,22.80
2023-01-21T08:13:25.209Z,24.00
2023-01-21T08:14:25.192Z,23.30
2023-01-21T08:15:25.150Z,22.10
2023-01-21T08:16:25.210Z,21.50
2023-01-21T08:17:25.118Z,21.30
2023-01-21T08:18:25.216Z,22.80
2023-01-21T08:19:25.557Z,21.20
2023-01-21T08:20:25.127Z,22.80
2023-01-21T08:21:25.079Z,23.20
2023-01-21T08:22:25.258Z,23.40
2023-01-21T08:23:25.066Z,22.90
2023-01-21T08:24:25.093Z,23.20
2023-01-21T08:25:25.055Z,23.50
2023-01-21T08:26:28.135Z,23.20
2023-01-21T08:27:25.026Z,23.10
2023-01-21T08:28:25.013Z,24.90
2023-01-21T08:29:25.011Z,23.10
2023-01-21T08:30:25.157Z,23.70
2023-01-21T08:31:25.022Z,23.40
2023-01-21T08:32:27.565Z,23.00
2023-01-21T08:33:27.519Z,24.30
2023-01-21T08:34:24.956Z,24.20
2023-01-21T08:35:24.948Z,25.00
2023-01-21T08:36:24.974Z,23.40
2023-01-21T08:37:24.938Z,23.80
2023-01-21T08:38:24.911Z,25.20
2023-01-21T08:39:24.893Z,24.10
2023-01-21T08:40:25.980Z,24.20
2023-01-21T08:41:24.898Z,23.40
2023-01-21T08:42:26.981Z,24.20
2023-01-21T08:43:24.851Z,24.50
2023-01-21T08:44:24.854Z,23.80
2023-01-21T08:45:24.866Z,25.10
2023-01-21T08:46:24.852Z,24.20
2023-01-21T08:47:24.815Z,23.40
2023-01-21T08:48:24.798Z,23.10
2023-01-21T08:49:25.820Z,24.40
2023-01-21T08:50:24.789Z,24.90
2023-01-21T08:51:24.777Z,24.00
2023-01-21T08:52:25.067Z,23.20
2023-01-21T08:53:24.743Z,24.50
2023-01-21T08:54:24.740Z,25.30
2023-01-21T08:55:24.751Z,24.10
2023-01-21T08:56:24.714Z,24.80
2023-01-21T08:57:24.737Z,23.50
2023-01-21T08:58:24.757Z,23.80
2023-01-21T08:59:24.686Z,24.10
2023-01-21T09:00:24.672Z,24.90
2023-01-21T09:01:24.783Z,25.40
2023-01-21T09:02:24.747Z,25.00
2023-01-21T09:03:24.654Z,25.50
2023-01-21T09:04:31.533Z,26.90
2023-01-21T09:05:24.645Z,26.10
2023-01-21T09:06:24.636Z,26.70
2023-01-21T09:07:24.639Z,26.20
2023-01-21T09:08:25.671Z,27.10
2023-01-21T09:09:24.623Z,25.60
2023-01-21T09:10:24.601Z,26.40
2023-01-21T09:11:24.606Z,25.90
2023-01-21T09:12:24.596Z,24.90
2023-01-21T09:13:24.540Z,25.60
2023-01-21T09:14:24.554Z,25.70
2023-01-21T09:15:24.508Z,26.20
2023-01-21T09:16:24.551Z,25.10
2023-01-21T09:17:24.515Z,25.30
2023-01-21T09:18:24.537Z,25.00
2023-01-21T09:19:24.475Z,25.40
2023-01-21T09:20:24.475Z,25.00
2023-01-21T09:21:24.448Z,23.70
2023-01-21T09:22:24.503Z,25.10
2023-01-21T09:23:24.769Z,25.20
2023-01-21T09:24:24.446Z,25.10
2023-01-21T09:25:24.407Z,25.50
2023-01-21T09:26:24.403Z,24.00
2023-01-21T09:27:24.390Z,24.10
2023-01-21T09:28:24.375Z,25.00
2023-01-21T09:29:24.403Z,23.60
2023-01-21T09:30:24.393Z,24.60
2023-01-21T09:31:24.415Z,25.00
2023-01-21T09:32:24.344Z,24.50
2023-01-21T09:33:24.328Z,25.80
2023-01-21T09:34:24.326Z,25.20
2023-01-21T09:35:24.327Z,27.20
2023-01-21T09:36:24.327Z,25.70
2023-01-21T09:37:24.292Z,26.50
2023-01-21T09:38:24.295Z,25.50
2023-01-21T09:39:24.279Z,25.90
2023-01-21T09:40:24.284Z,24.80
2023-01-21T09:41:25.335Z,25.20
2023-01-21T09:42:24.256Z,23.80
2023-01-21T09:43:24.230Z,26.00
2023-01-21T09:44:24.209Z,25.70
2023-01-21T09:45:24.246Z,24.90
2023-01-21T09:46:24.184Z,24.70
2023-01-21T09:47:24.188Z,24.40
2023-01-21T09:48:24.216Z,23.70
2023-01-21T09:49:24.169Z,23.70
2023-01-21T09:50:24.149Z,24.40
2023-01-21T09:51:25.020Z,23.60
2023-01-21T09:52:24.133Z,24.80
2023-01-21T09:53:24.158Z,25.00
2023-01-21T09:54:24.106Z,25.80
2023-01-21T09:55:24.106Z,24.50
2023-01-21T09:56:24.161Z,23.60
2023-01-21T09:57:24.092Z,25.70
2023-01-21T09:58:24.083Z,24.10
2023-01-21T09:59:25.017Z,26.30
2023-01-21T10:00:24.052Z,23.40
2023-01-21T10:01:24.078Z,23.10
2023-01-21T10:02:24.033Z,22.90
2023-01-21T10:03:24.037Z,23.60
2023-01-21T10:04:24.013Z,23.50
2023-01-21T10:05:23.992Z,22.90
2023-01-21T10:06:23.991Z,23.60
2023-01-21T10:07:23.968Z,24.30
2023-01-21T10:08:23.986Z,23.70
2023-01-21T10:09:24.041Z,22.30
2023-01-21T10:10:23.946Z,23.60
2023-01-21T10:11:23.974Z,22.00
2023-01-21T10:12:23.952Z,22.90
2023-01-21T10:13:23.911Z,21.60
2023-01-21T10:14:24.528Z,21.60
2023-01-21T10:15:23.900Z,21.10
2023-01-21T10:16:23.928Z,22.60
2023-01-21T10:17:24.509Z,21.60
2023-01-21T10:18:23.859Z,21.20
2023-01-21T10:19:23.863Z,22.90
2023-01-21T10:20:23.852Z,20.90
2023-01-21T10:21:23.834Z,23.10
2023-01-21T10:22:23.809Z,22.70
2023-01-21T10:23:24.509Z,21.10
2023-01-21T10:24:23.806Z,24.40
2023-01-21T10:25:24.042Z,23.40
2023-01-21T10:26:23.764Z,22.70
2023-01-21T10:27:23.768Z,21.40
2023-01-21T10:28:23.780Z,21.60
2023-01-21T10:29:23.745Z,20.10
2023-01-21T10:30:23.745Z,20.00
2023-01-21T10:31:23.897Z,22.60
2023-01-21T10:32:23.727Z,21.70
2023-01-21T10:33:24.511Z,21.00
2023-01-21T10:34:24.516Z,19.70
2023-01-21T10:35:23.690Z,20.30
2023-01-21T10:36:23.684Z,20.60
2023-01-21T10:37:24.048Z,21.80
2023-01-21T10:38:24.697Z,20.20
2023-01-21T10:39:23.636Z,20.30
2023-01-21T10:40:24.520Z,20.10
2023-01-21T10:41:24.047Z,19.00
2023-01-21T10:42:24.034Z,20.30
2023-01-21T10:43:23.589Z,20.80
2023-01-21T10:44:23.589Z,19.50
2023-01-21T10:45:23.570Z,19.30
2023-01-21T10:46:23.609Z,20.80
2023-01-21T10:47:23.550Z,20.30
2023-01-21T10:48:24.054Z,18.50
2023-01-21T10:49:23.524Z,19.40
2023-01-21T10:50:23.514Z,17.30
2023-01-21T10:51:23.575Z,19.20
2023-01-21T10:52:23.492Z,19.10
2023-01-21T10:53:26.036Z,20.40
2023-01-21T10:54:23.550Z,18.20
2023-01-21T10:55:23.464Z,19.30
2023-01-21T10:56:26.011Z,19.60
2023-01-21T10:57:23.448Z,18.60
2023-01-21T10:58:23.421Z,17.20
2023-01-21T10:59:23.416Z,18.10
2023-01-21T11:00:23.453Z,18.70
2023-01-21T11:01:23.444Z,17.90
2023-01-21T11:02:23.429Z,17.90
2023-01-21T11:03:23.375Z,16.60
2023-01-21T11:04:26.021Z,17.60
2023-01-21T11:05:24.005Z,17.40
2023-01-21T11:06:23.552Z,16.70
2023-01-21T11:07:23.358Z,17.70
2023-01-21T11:08:24.352Z,18.20
2023-01-21T11:09:23.297Z,17.30
2023-01-21T11:10:23.296Z,16.50
2023-01-21T11:11:23.999Z,16.70
2023-01-21T11:12:23.281Z,15.90
2023-01-21T11:13:23.268Z,16.80
2023-01-21T11:14:23.297Z,16.70
2023-01-21T11:15:23.237Z,16.70
2023-01-21T11:16:23.250Z,17.60
2023-01-21T11:17:23.218Z,16.20
2023-01-21T11:18:23.235Z,17.00
2023-01-21T11:19:23.183Z,15.90
2023-01-21T11:20:24.009Z,18.20
2023-01-21T11:21:26.002Z,16.00
2023-01-21T11:22:23.216Z,16.40
2023-01-21T11:23:23.163Z,15.90
2023-01-21T11:24:23.221Z,16.90
2023-01-21T11:25:24.032Z,15.70
2023-01-21T11:26:23.125Z,15.90
2023-01-21T11:27:44.117Z,15.30
2023-01-21T11:28:26.001Z,17.20
2023-01-21T11:29:23.110Z,18.70
2023-01-21T11:30:44.082Z,17.60
2023-01-21T11:31:24.139Z,16.80
2023-01-21T11:32:23.267Z,17.70
2023-01-21T11:33:23.051Z,16.00
2023-01-21T11:34:23.549Z,15.70
2023-01-21T11:35:23.551Z,15.80
2023-01-21T11:36:23.014Z,15.20
2023-01-21T11:37:23.064Z,15.20
2023-01-21T11:38:22.988Z,15.30
2023-01-21T11:39:22.983Z,15.90
2023-01-21T11:40:23.847Z,15.10
2023-01-21T11:41:22.975Z,15.00
2023-01-21T11:42:23.056Z,14.20
2023-01-21T11:43:29.512Z,14.40
2023-01-21T11:44:24.001Z,15.10
2023-01-21T11:45:22.931Z,15.00
2023-01-21T11:46:23.569Z,14.40
2023-01-21T11:47:22.926Z,15.00
2023-01-21T11:48:22.916Z,14.90
2023-01-21T11:49:22.866Z,14.90
2023-01-21T11:50:22.899Z,14.40
2023-01-21T11:51:22.855Z,14.40
2023-01-21T11:52:22.851Z,14.80
2023-01-21T11:53:22.826Z,14.40
2023-01-21T11:54:22.829Z,15.20
2023-01-21T11:55:22.809Z,14.90
2023-01-21T11:56:22.823Z,15.40
2023-01-21T11:57:22.786Z,14.60
2023-01-21T11:58:22.780Z,14.50
2023-01-21T11:59:22.769Z,15.10
2023-01-21T12:00:22.875Z,16.40
2023-01-21T12:01:22.753Z,15.40
2023-01-21T12:02:23.124Z,14.70
2023-01-21T12:03:22.798Z,15.00
2023-01-21T12:04:24.784Z,14.60
2023-01-21T12:05:23.047Z,14.60
2023-01-21T12:06:22.693Z,14.60
2023-01-21T12:07:22.686Z,14.40
2023-01-21T12:08:23.738Z,13.10
2023-01-21T12:09:22.666Z,16.60
2023-01-21T12:10:22.653Z,14.30
2023-01-21T12:11:23.547Z,15.30
2023-01-21T12:12:24.322Z,14.70
2023-01-21T12:13:22.620Z,15.70
2023-01-21T12:14:22.603Z,15.00
2023-01-21T12:15:22.595Z,15.00
2023-01-21T12:16:22.692Z,15.70
2023-01-21T12:17:22.589Z,15.00
2023-01-21T12:18:22.583Z,15.20
2023-01-21T12:19:22.544Z,14.50
2023-01-21T12:20:22.561Z,15.20
2023-01-21T12:21:23.501Z,15.80
2023-01-21T12:22:22.512Z,13.90
2023-01-21T12:23:22.539Z,15.20
2023-01-21T12:24:22.495Z,15.20
2023-01-21T12:25:22.482Z,16.30
2023-01-21T12:26:22.481Z,15.00
2023-01-21T12:27:25.025Z,14.40
2023-01-21T12:28:25.039Z,14.60
2023-01-21T12:29:22.454Z,14.50
2023-01-21T12:30:22.440Z,14.10
2023-01-21T12:31:22.523Z,15.20
2023-01-21T12:32:23.741Z,15.90
2023-01-21T12:33:22.418Z,14.40
2023-01-21T12:34:24.442Z,15.60
2023-01-21T12:35:22.401Z,14.60
2023-01-21T12:36:22.398Z,15.80
2023-01-21T12:37:22.365Z,15.30
2023-01-21T12:38:22.352Z,15.10
2023-01-21T12:39:22.344Z,14.60
2023-01-21T12:40:22.341Z,15.10
2023-01-21T12:41:22.315Z,15.80
2023-01-21T12:42:22.344Z,15.60
2023-01-21T12:43:22.288Z,14.20
2023-01-21T12:44:22.304Z,15.60
2023-01-21T12:45:22.282Z,15.70
2023-01-21T12:46:22.320Z,15.20
2023-01-21T12:47:22.250Z,17.20
2023-01-21T12:48:22.253Z,14.80
2023-01-21T12:49:22.217Z,14.80
2023-01-21T12:50:22.207Z,16.30
2023-01-21T12:51:22.267Z,14.80
2023-01-21T12:52:22.219Z,15.50
2023-01-21T12:53:22.185Z,14.90